Time;durP1;ratioP1;P1;durP2;ratioP2;P2;SDS_P1;SDS_P2;PMS_P1;PMS_P2;Temp;Humidity;BMP_temperature;BMP_pressure;BME280_temperature;BME280_humidity;BME280_pressure;Samples;Min_cycle;Max_cycle;Signal;HPM_P1;HPM_P2
2024/02/23 00:02:00;;;;;;;2.67;0.50;;;;;;;8.98;62.36;97685.78;5010318;28;20285;-88
2024/02/23 00:04:26;;;;;;;1.77;0.50;;;;;;;8.94;60.85;97687.09;5012406;28;20270;-86
2024/02/23 00:06:53;;;;;;;2.53;0.60;;;;;;;8.91;60.88;97700.69;5008677;28;20237;-85
2024/02/23 00:09:19;;;;;;;1.27;0.30;;;;;;;8.88;60.84;97693.03;5013277;28;20211;-87
2024/02/23 00:11:47;;;;;;;2.83;0.70;;;;;;;8.85;60.89;97703.13;5013877;28;20205;-86
2024/02/23 00:14:13;;;;;;;2.87;0.73;;;;;;;8.81;61.89;97699.13;5012771;28;20207;-85
2024/02/23 00:16:42;;;;;;;2.27;0.40;;;;;;;8.77;61.85;97698.63;5017603;28;20234;-86
2024/02/23 00:19:09;;;;;;;0.73;0.40;;;;;;;8.74;62.00;97714.03;5014068;28;20637;-85
2024/02/23 00:21:35;;;;;;;3.47;0.57;;;;;;;8.73;62.42;97712.34;5013096;28;20215;-85
2024/02/23 00:24:02;;;;;;;4.17;0.60;;;;;;;8.68;62.22;97712.81;5012964;28;20231;-86
2024/02/23 00:26:29;;;;;;;1.90;0.77;;;;;;;8.65;62.11;97708.66;5011217;28;20234;-88
2024/02/23 00:28:55;;;;;;;1.47;0.50;;;;;;;8.65;61.35;97719.28;5008563;28;20222;-88
2024/02/23 00:31:22;;;;;;;2.20;0.57;;;;;;;8.66;60.50;97698.88;5007163;28;20588;-85
2024/02/23 00:33:50;;;;;;;6.20;0.83;;;;;;;8.64;60.83;97724.72;5012912;28;20207;-87
2024/02/23 00:36:16;;;;;;;0.83;0.40;;;;;;;8.63;59.65;97718.59;5013124;28;20283;-89
2024/02/23 00:38:43;;;;;;;3.87;0.67;;;;;;;8.68;59.22;97718.13;5015211;28;20576;-86
2024/02/23 00:41:10;;;;;;;2.50;0.50;;;;;;;8.64;59.68;97733.53;5020742;28;20207;-86
2024/02/23 00:43:39;;;;;;;2.20;0.43;;;;;;;8.66;59.60;97730.72;5011484;28;20231;-86
2024/02/23 00:46:05;;;;;;;3.77;0.57;;;;;;;8.68;60.16;97740.19;5008874;28;20231;-84
2024/02/23 00:48:32;;;;;;;1.33;0.40;;;;;;;8.68;59.88;97728.75;5009916;28;20203;-85
2024/02/23 00:51:00;;;;;;;2.13;0.40;;;;;;;8.66;60.56;97742.16;5008061;28;20591;-86
2024/02/23 00:53:26;;;;;;;1.53;0.40;;;;;;;8.69;60.91;97767.56;5012963;28;20213;-85
2024/02/23 00:55:53;;;;;;;1.60;0.57;;;;;;;8.67;61.44;97759.75;5013469;28;20203;-86
2024/02/23 00:58:19;;;;;;;2.37;0.37;;;;;;;8.69;60.60;97775.50;5007499;28;20207;-86
2024/02/23 01:00:47;;;;;;;2.33;0.30;;;;;;;8.71;61.26;97768.22;5006883;28;20217;-84
2024/02/23 01:03:14;;;;;;;1.60;0.40;;;;;;;8.68;60.31;97763.22;5024232;28;20225;-84
2024/02/23 01:05:42;;;;;;;0.47;0.40;;;;;;;8.69;60.99;97784.31;5015743;28;20205;-84
2024/02/23 01:08:10;;;;;;;2.10;0.27;;;;;;;8.66;59.74;97784.59;5011904;28;20277;-85
2024/02/23 01:10:36;;;;;;;0.67;0.30;;;;;;;8.65;59.93;97790.06;5009913;28;20593;-85
2024/02/23 01:13:04;;;;;;;4.30;0.97;;;;;;;8.64;59.94;97836.16;5014888;28;20253;-86
2024/02/23 01:15:31;;;;;;;0.60;0.40;;;;;;;8.59;59.03;97803.97;5000965;28;20626;-86
2024/02/23 01:17:58;;;;;;;0.70;0.23;;;;;;;8.57;59.21;97813.91;5009416;28;20223;-85
2024/02/23 01:20:24;;;;;;;2.53;0.40;;;;;;;8.52;59.39;97834.72;5009110;28;20233;-85
2024/02/23 01:22:51;;;;;;;0.43;0.20;;;;;;;8.51;60.70;97839.22;5003243;28;20201;-84
2024/02/23 01:25:19;;;;;;;0.17;0.17;;;;;;;8.47;60.26;97845.78;5007141;28;20294;-84
2024/02/23 01:27:45;;;;;;;0.33;0.23;;;;;;;8.45;59.87;97858.38;5010774;28;20237;-84
2024/02/23 01:30:13;;;;;;;0.23;0.20;;;;;;;8.45;61.49;97884.06;5002693;28;20207;-87
2024/02/23 01:32:39;;;;;;;0.93;0.20;;;;;;;8.45;60.13;97902.63;5009454;28;20205;-84
2024/02/23 01:35:07;;;;;;;0.20;0.20;;;;;;;8.37;60.34;97903.41;5010965;28;20215;-84
2024/02/23 01:37:34;;;;;;;0.23;0.23;;;;;;;8.37;61.55;97895.44;5011106;28;20226;-84
2024/02/23 01:40:01;;;;;;;0.37;0.17;;;;;;;8.32;62.42;97914.44;5014896;28;20446;-84
2024/02/23 01:42:29;;;;;;;0.10;0.10;;;;;;;8.26;61.50;97919.47;5009051;28;20214;-85
2024/02/23 01:44:56;;;;;;;0.67;0.10;;;;;;;8.17;62.58;97915.91;5012257;28;20222;-87
2024/02/23 01:47:23;;;;;;;0.47;0.10;;;;;;;8.14;65.28;97942.72;5013734;28;20223;-85
2024/02/23 01:49:50;;;;;;;0.20;0.20;;;;;;;8.10;66.20;97962.53;5009649;28;20207;-84
2024/02/23 01:52:18;;;;;;;1.03;0.20;;;;;;;8.02;67.12;97970.41;5010404;28;20715;-83
2024/02/23 01:54:45;;;;;;;0.27;0.20;;;;;;;7.95;67.66;97982.56;5006972;28;20261;-84
2024/02/23 01:57:12;;;;;;;0.50;0.23;;;;;;;7.85;68.18;98001.16;5015372;28;20222;-84
2024/02/23 01:59:41;;;;;;;0.20;0.20;;;;;;;7.79;68.71;97999.06;5005155;28;20213;-86
2024/02/23 02:02:07;;;;;;;0.77;0.23;;;;;;;7.72;69.29;98016.50;5010687;28;20286;-84
2024/02/23 02:04:34;;;;;;;0.57;0.20;;;;;;;7.74;71.76;98048.16;5010386;28;20226;-84
2024/02/23 02:07:01;;;;;;;0.30;0.30;;;;;;;7.68;74.91;98060.19;5015253;28;20218;-84
2024/02/23 02:09:28;;;;;;;0.80;0.30;;;;;;;7.63;75.92;98054.47;5006893;28;20210;-85
2024/02/23 02:11:54;;;;;;;0.23;0.20;;;;;;;7.58;76.80;98064.63;5010652;28;20202;-86
2024/02/23 02:14:21;;;;;;;0.20;0.20;;;;;;;7.49;77.41;98066.34;5010224;28;20228;-85
2024/02/23 02:16:49;;;;;;;0.30;0.20;;;;;;;7.38;76.89;98071.75;5008243;28;20227;-86
2024/02/23 02:19:15;;;;;;;0.20;0.20;;;;;;;7.34;78.33;98075.69;5002866;28;20199;-87
2024/02/23 02:21:42;;;;;;;0.20;0.20;;;;;;;7.26;79.05;98079.00;5017575;28;20202;-86
2024/02/23 02:24:09;;;;;;;0.40;0.20;;;;;;;7.16;79.20;98087.94;5012526;28;20227;-85
2024/02/23 02:26:37;;;;;;;1.07;0.40;;;;;;;7.09;80.63;98097.38;5010040;28;20313;-86
2024/02/23 02:29:03;;;;;;;0.30;0.30;;;;;;;7.01;80.42;98094.56;5010143;28;20203;-85
2024/02/23 02:31:36;;;;;;;0.20;0.20;;;;;;;6.95;80.85;98104.75;5005441;28;20653;-85
2024/02/23 02:34:04;;;;;;;0.50;0.20;;;;;;;6.83;81.65;98108.47;5001461;28;20211;-84
2024/02/23 02:36:31;;;;;;;0.60;0.20;;;;;;;6.78;81.46;98120.44;5010343;28;20233;-85
2024/02/23 02:38:58;;;;;;;0.40;0.30;;;;;;;6.72;81.06;98129.75;5013567;28;20195;-85
2024/02/23 02:41:28;;;;;;;0.20;0.20;;;;;;;6.72;81.84;98144.78;5012702;28;20203;-85
2024/02/23 02:43:55;;;;;;;0.20;0.20;;;;;;;6.67;81.75;98144.34;5011542;28;20309;-84
2024/02/23 02:46:21;;;;;;;1.10;0.20;;;;;;;6.65;82.04;98155.03;5014393;28;20252;-84
2024/02/23 02:48:48;;;;;;;0.20;0.20;;;;;;;6.56;82.74;98147.94;5008548;28;20239;-86
2024/02/23 02:51:16;;;;;;;0.20;0.20;;;;;;;6.53;82.93;98170.19;5004946;28;20211;-86
2024/02/23 02:53:42;;;;;;;0.20;0.20;;;;;;;6.53;82.71;98174.63;5004809;28;20226;-86
2024/02/23 02:56:09;;;;;;;0.30;0.20;;;;;;;6.45;82.95;98179.75;5014397;28;20203;-85
2024/02/23 02:58:35;;;;;;;0.20;0.20;;;;;;;6.43;82.44;98197.56;5013835;28;20298;-84
2024/02/23 03:01:02;;;;;;;0.40;0.23;;;;;;;6.42;82.49;98191.44;5016442;28;20195;-84
2024/02/23 03:03:28;;;;;;;0.20;0.20;;;;;;;6.41;81.89;98194.19;5010548;28;20200;-85
2024/02/23 03:05:55;;;;;;;0.93;0.40;;;;;;;6.40;81.66;98201.28;5018547;28;20203;-85
2024/02/23 03:08:23;;;;;;;1.20;0.40;;;;;;;6.37;80.92;98208.63;5014109;28;20697;-85
2024/02/23 03:10:50;;;;;;;0.40;0.20;;;;;;;6.38;79.79;98218.25;5015286;28;20213;-84
2024/02/23 03:13:16;;;;;;;0.53;0.40;;;;;;;6.32;80.21;98218.75;5012217;28;20221;-86
2024/02/23 03:15:43;;;;;;;0.50;0.30;;;;;;;6.31;79.77;98219.72;5009975;28;21386;-85
2024/02/23 03:18:09;;;;;;;0.23;0.23;;;;;;;6.26;79.14;98231.53;5016880;28;20227;-87
2024/02/23 03:20:36;;;;;;;0.40;0.30;;;;;;;6.26;79.17;98231.53;5011294;28;20622;-86
2024/02/23 03:23:03;;;;;;;1.77;0.30;;;;;;;6.23;78.75;98234.44;5010691;28;20199;-87
2024/02/23 03:25:31;;;;;;;0.67;0.30;;;;;;;6.21;78.46;98233.72;5005364;28;20239;-86
2024/02/23 03:27:57;;;;;;;0.30;0.30;;;;;;;6.20;77.43;98239.97;5013345;28;20253;-84
2024/02/23 03:30:24;;;;;;;0.30;0.30;;;;;;;6.20;76.44;98239.97;5003363;28;20895;-85
2024/02/23 03:32:51;;;;;;;1.00;0.33;;;;;;;6.15;75.21;98244.78;5007186;28;20211;-85
2024/02/23 03:35:17;;;;;;;1.17;0.30;;;;;;;6.10;75.04;98249.63;5015181;28;20222;-84
2024/02/23 03:37:44;;;;;;;0.50;0.50;;;;;;;6.09;75.37;98247.94;5014270;28;20234;-86
2024/02/23 03:40:12;;;;;;;0.73;0.53;;;;;;;6.14;74.79;98237.00;5011067;28;20207;-86
2024/02/23 03:42:40;;;;;;;1.70;0.50;;;;;;;6.07;74.87;98268.41;5014288;28;20199;-88
2024/02/23 03:45:07;;;;;;;0.60;0.50;;;;;;;6.09;74.60;98253.22;5011039;28;20228;-85
2024/02/23 03:47:33;;;;;;;0.83;0.50;;;;;;;6.06;73.53;98266.72;5014142;28;20258;-86
2024/02/23 03:50:00;;;;;;;0.67;0.53;;;;;;;6.07;73.96;98268.41;5011800;28;20278;-86
2024/02/23 03:52:26;;;;;;;2.17;0.50;;;;;;;6.07;73.36;98257.81;5012855;28;20293;-86
2024/02/23 03:54:54;;;;;;;0.83;0.67;;;;;;;6.05;73.50;98275.59;5017807;28;20774;-86
2024/02/23 03:57:21;;;;;;;2.07;0.80;;;;;;;6.06;73.94;98269.38;5013140;28;20702;-86
2024/02/23 03:59:54;;;;;;;1.80;0.70;;;;;;;6.05;73.44;98283.53;5010131;28;20203;-87
2024/02/23 04:02:20;;;;;;;2.80;0.80;;;;;;;6.01;72.87;98290.03;5012048;28;20203;-85
2024/02/23 04:04:48;;;;;;;0.87;0.60;;;;;;;6.00;72.85;98295.44;5012865;28;20607;-85
2024/02/23 04:07:15;;;;;;;1.00;0.70;;;;;;;5.98;72.39;98297.38;5008148;28;20223;-85
2024/02/23 04:09:41;;;;;;;1.03;0.60;;;;;;;5.96;72.49;98297.50;5023297;28;20234;-84
2024/02/23 04:12:08;;;;;;;0.87;0.60;;;;;;;5.94;72.10;98280.91;5012801;28;20198;-86
2024/02/23 04:14:36;;;;;;;1.40;0.60;;;;;;;5.93;72.31;98289.81;5015560;28;20211;-84
2024/02/23 04:17:04;;;;;;;1.93;0.70;;;;;;;5.93;71.65;98293.28;5014785;28;20219;-85
2024/02/23 04:19:31;;;;;;;0.93;0.70;;;;;;;5.90;71.34;98293.56;5014208;28;20962;-85
2024/02/23 04:21:57;;;;;;;2.57;0.70;;;;;;;5.87;71.64;98285.84;5014636;28;20210;-84
2024/02/23 04:24:24;;;;;;;2.17;0.70;;;;;;;5.85;71.62;98297.50;5012974;28;20227;-84
2024/02/23 04:26:50;;;;;;;1.33;0.60;;;;;;;5.85;71.84;98289.56;5014922;28;20777;-84
2024/02/23 04:29:17;;;;;;;0.87;0.50;;;;;;;5.85;72.21;98300.16;5015746;28;20198;-86
2024/02/23 04:31:44;;;;;;;3.03;0.80;;;;;;;5.83;71.91;98294.16;5011983;28;20205;-87
2024/02/23 04:34:11;;;;;;;1.00;0.50;;;;;;;5.80;72.69;98302.31;5011120;28;20215;-87
2024/02/23 04:36:38;;;;;;;1.53;0.70;;;;;;;5.82;72.31;98305.66;5008320;28;20227;-85
2024/02/23 04:39:05;;;;;;;0.60;0.60;;;;;;;5.80;71.73;98323.44;5015431;28;20220;-84
2024/02/23 04:41:31;;;;;;;1.37;0.90;;;;;;;5.80;72.47;98321.63;5018920;28;20207;-84
2024/02/23 04:43:59;;;;;;;0.93;0.60;;;;;;;5.81;72.77;98319.84;5012965;28;20209;-86
2024/02/23 04:46:26;;;;;;;0.70;0.60;;;;;;;5.81;72.83;98330.41;5021244;28;20226;-85
2024/02/23 04:48:53;;;;;;;1.67;0.63;;;;;;;5.79;73.09;98340.25;5027783;28;20771;-86
2024/02/23 04:51:22;;;;;;;1.07;0.97;;;;;;;5.79;73.01;98341.09;5015526;28;20211;-85
2024/02/23 04:53:49;;;;;;;2.27;0.77;;;;;;;5.78;72.91;98349.13;5011037;28;20207;-85
2024/02/23 04:56:15;;;;;;;2.30;0.70;;;;;;;5.78;74.04;98352.63;5009557;28;20200;-85
2024/02/23 04:58:42;;;;;;;0.93;0.70;;;;;;;5.79;72.95;98358.75;5012347;28;20274;-85
2024/02/23 05:01:09;;;;;;;1.70;0.70;;;;;;;5.76;73.04;98348.41;5012715;28;20210;-85
2024/02/23 05:03:35;;;;;;;1.63;0.67;;;;;;;5.79;72.87;98361.38;5011524;28;20209;-85
2024/02/23 05:06:03;;;;;;;1.33;0.50;;;;;;;5.79;71.81;98370.16;5008201;28;20238;-84
2024/02/23 05:08:31;;;;;;;2.33;0.50;;;;;;;5.80;70.69;98366.53;5008480;28;20207;-84
2024/02/23 05:10:58;;;;;;;4.33;0.70;;;;;;;5.80;70.09;98370.97;5007131;28;20199;-85
2024/02/23 05:13:25;;;;;;;2.13;0.70;;;;;;;5.77;70.56;98368.59;5008847;28;20209;-85
2024/02/23 05:15:51;;;;;;;1.37;0.50;;;;;;;5.77;71.18;98374.69;5001033;28;20211;-87
2024/02/23 05:18:18;;;;;;;1.07;0.50;;;;;;;5.78;70.35;98372.91;5016360;28;20219;-85
2024/02/23 05:20:44;;;;;;;2.13;0.53;;;;;;;5.80;70.02;98381.56;5008485;28;21481;-85
2024/02/23 05:23:10;;;;;;;0.93;0.53;;;;;;;5.82;69.88;98384.91;5000745;28;20209;-84
2024/02/23 05:25:38;;;;;;;1.83;0.50;;;;;;;5.79;69.54;98390.44;5004677;28;20238;-84
2024/02/23 05:28:05;;;;;;;1.43;0.47;;;;;;;5.79;69.61;98393.06;5011827;28;20226;-84
2024/02/23 05:30:32;;;;;;;1.00;0.50;;;;;;;5.81;69.41;98393.78;5016141;28;20211;-86
2024/02/23 05:32:59;;;;;;;1.47;0.70;;;;;;;5.81;69.29;98397.28;5008203;28;20211;-84
2024/02/23 05:35:26;;;;;;;1.93;0.70;;;;;;;5.77;68.58;98402.91;5008541;28;20215;-86
2024/02/23 05:37:52;;;;;;;1.40;0.67;;;;;;;5.77;69.15;98397.63;5007487;28;20222;-86
2024/02/23 05:40:19;;;;;;;5.67;1.10;;;;;;;5.76;68.55;98406.53;5011554;28;20206;-84
2024/02/23 05:42:47;;;;;;;2.33;0.70;;;;;;;5.76;68.40;98419.72;5010172;28;20299;-85
2024/02/23 05:45:13;;;;;;;0.67;0.50;;;;;;;5.70;67.53;98418.44;5007400;28;20277;-85
2024/02/23 05:47:40;;;;;;;1.60;0.57;;;;;;;5.69;67.92;98414.09;5007875;28;21529;-85
2024/02/23 05:50:09;;;;;;;0.93;0.50;;;;;;;5.74;67.04;98421.63;5012517;28;20207;-84
2024/02/23 05:52:36;;;;;;;1.47;0.60;;;;;;;5.73;67.17;98418.16;5017263;28;20213;-84
2024/02/23 05:55:04;;;;;;;1.83;0.83;;;;;;;5.73;66.97;98428.72;5008683;28;20286;-85
2024/02/23 05:57:31;;;;;;;1.00;0.53;;;;;;;5.75;67.57;98436.53;5005939;28;20246;-84
2024/02/23 05:59:59;;;;;;;2.50;0.60;;;;;;;5.76;67.46;98440.84;5019273;28;20733;-86
2024/02/23 06:02:25;;;;;;;2.33;0.63;;;;;;;5.75;67.98;98447.09;5008026;28;20287;-84
2024/02/23 06:04:52;;;;;;;2.10;0.73;;;;;;;5.75;67.52;98447.94;5019384;28;20226;-85
2024/02/23 06:07:20;;;;;;;2.63;0.57;;;;;;;5.75;67.80;98442.66;5008330;28;20226;-84
2024/02/23 06:09:47;;;;;;;0.73;0.50;;;;;;;5.83;67.41;98455.28;5013007;28;20213;-86
2024/02/23 06:12:13;;;;;;;1.63;0.87;;;;;;;5.81;67.94;98451.91;5018955;28;20278;-85
2024/02/23 06:14:40;;;;;;;3.27;0.83;;;;;;;5.80;68.07;98451.06;5003397;28;20207;-85
2024/02/23 06:17:08;;;;;;;1.37;0.90;;;;;;;5.80;68.02;98463.44;5016298;28;20575;-85
2024/02/23 06:19:34;;;;;;;2.60;0.93;;;;;;;5.79;67.73;98469.66;5010710;28;20839;-86
2024/02/23 06:22:01;;;;;;;3.37;0.70;;;;;;;5.79;68.06;98474.94;5011687;28;20209;-84
2024/02/23 06:24:28;;;;;;;4.43;0.70;;;;;;;5.80;67.79;98477.47;5012423;28;20195;-85
2024/02/23 06:26:54;;;;;;;1.60;0.67;;;;;;;5.80;68.84;98477.47;5012826;28;20223;-84
2024/02/23 06:29:21;;;;;;;1.50;0.50;;;;;;;5.81;68.74;98494.16;5006814;28;20223;-85
2024/02/23 06:31:49;;;;;;;0.90;0.50;;;;;;;5.81;68.08;98494.16;5010731;28;20210;-84
2024/02/23 06:34:17;;;;;;;2.53;0.57;;;;;;;5.84;67.85;98480.72;5004900;28;20260;-84
2024/02/23 06:36:44;;;;;;;3.80;1.30;;;;;;;5.82;66.98;98496.69;5008416;28;20325;-84
2024/02/23 06:39:10;;;;;;;1.37;0.50;;;;;;;5.87;68.19;98486.63;5008570;28;20298;-85
2024/02/23 06:41:38;;;;;;;2.73;0.60;;;;;;;5.87;67.60;98507.75;5009822;28;20286;-85
2024/02/23 06:44:05;;;;;;;3.47;0.60;;;;;;;5.84;67.44;98521.19;5004731;28;20679;-85
2024/02/23 06:46:31;;;;;;;3.50;0.40;;;;;;;5.83;67.57;98508.94;5015659;28;20234;-87
2024/02/23 06:48:58;;;;;;;1.17;0.57;;;;;;;5.83;67.74;98516.88;5009925;28;20209;-84
2024/02/23 06:51:26;;;;;;;2.90;0.50;;;;;;;5.86;66.92;98521.06;5009448;28;20213;-85
2024/02/23 06:53:52;;;;;;;2.87;0.77;;;;;;;5.87;66.78;98522.75;5017146;28;20729;-85
2024/02/23 06:56:19;;;;;;;1.20;0.40;;;;;;;5.91;66.37;98524.25;5007229;28;20227;-84
2024/02/23 06:58:45;;;;;;;1.30;1.17;;;;;;;5.92;66.33;98520.59;5009677;28;20246;-84
2024/02/23 07:01:12;;;;;;;2.00;0.60;;;;;;;5.90;66.54;98527.84;5011752;28;20207;-85
2024/02/23 07:03:40;;;;;;;1.27;0.50;;;;;;;5.90;67.13;98530.47;5009073;28;20233;-84
2024/02/23 07:06:06;;;;;;;0.50;0.40;;;;;;;5.90;65.83;98536.59;5002547;28;20343;-86
2024/02/23 07:08:34;;;;;;;2.40;0.47;;;;;;;5.88;65.84;98535.88;5007358;28;20282;-85
2024/02/23 07:11:01;;;;;;;2.47;0.50;;;;;;;5.97;66.06;98539.59;5012963;28;20314;-84
2024/02/23 07:13:27;;;;;;;3.97;0.80;;;;;;;5.97;65.38;98542.22;5020499;28;20202;-85
2024/02/23 07:15:55;;;;;;;2.10;0.60;;;;;;;6.03;64.93;98546.22;5012342;28;20227;-86
2024/02/23 07:18:22;;;;;;;2.77;1.17;;;;;;;6.03;65.08;98552.34;5008536;28;20731;-84
2024/02/23 07:20:48;;;;;;;4.37;1.03;;;;;;;6.03;64.33;98551.50;5004648;28;20207;-84
2024/02/23 07:23:16;;;;;;;1.80;0.80;;;;;;;6.02;64.65;98550.66;5002102;28;20207;-84
2024/02/23 07:25:44;;;;;;;1.47;0.60;;;;;;;6.03;64.53;98557.63;5006342;28;20306;-85
2024/02/23 07:28:10;;;;;;;2.20;0.83;;;;;;;6.08;64.82;98565.19;5006623;28;20219;-86
2024/02/23 07:30:37;;;;;;;2.37;0.50;;;;;;;6.11;64.52;98557.84;5007165;28;20573;-84
2024/02/23 07:33:03;;;;;;;2.37;0.53;;;;;;;6.08;64.58;98568.69;5002932;28;20208;-84
2024/02/23 07:35:30;;;;;;;2.00;0.60;;;;;;;6.10;64.35;98550.88;5006441;28;20219;-85
2024/02/23 07:37:56;;;;;;;1.77;0.50;;;;;;;6.11;64.73;98570.22;5012809;28;20223;-84
2024/02/23 07:40:23;;;;;;;1.20;0.30;;;;;;;6.11;64.71;98571.06;5006193;28;20207;-85
2024/02/23 07:42:51;;;;;;;1.77;0.47;;;;;;;6.15;64.38;98579.59;5015323;28;20211;-84
2024/02/23 07:45:18;;;;;;;2.17;0.50;;;;;;;6.14;65.01;98584.03;5019529;28;20234;-85
2024/02/23 07:47:44;;;;;;;1.57;0.60;;;;;;;6.17;65.39;98583.81;5010776;28;20231;-86
2024/02/23 07:50:12;;;;;;;2.53;0.57;;;;;;;6.21;64.64;98590.53;5013832;28;20207;-86
2024/02/23 07:52:39;;;;;;;1.83;0.50;;;;;;;6.22;65.42;98608.09;5012253;28;20663;-86
2024/02/23 07:55:06;;;;;;;1.97;0.50;;;;;;;6.24;65.55;98607.97;5011645;28;20677;-84
2024/02/23 07:57:34;;;;;;;0.90;0.50;;;;;;;6.24;65.38;98607.97;5011730;28;20223;-84
2024/02/23 08:00:02;;;;;;;5.73;0.90;;;;;;;6.21;65.27;98608.19;5012163;28;20584;-84
2024/02/23 08:02:29;;;;;;;2.13;0.40;;;;;;;6.21;64.86;98626.69;5009722;28;20211;-84
2024/02/23 08:04:55;;;;;;;0.70;0.30;;;;;;;6.23;64.70;98623.00;5012567;28;20207;-84
2024/02/23 08:07:22;;;;;;;1.30;0.30;;;;;;;6.24;64.85;98624.66;5009847;28;20233;-83
2024/02/23 08:09:49;;;;;;;3.17;0.57;;;;;;;6.27;64.39;98624.41;5014549;28;20656;-84
2024/02/23 08:12:15;;;;;;;1.87;0.40;;;;;;;6.27;63.78;98624.41;5014014;28;20203;-85
2024/02/23 08:14:43;;;;;;;1.20;0.60;;;;;;;6.34;64.38;98613.38;5011244;28;20206;-85
2024/02/23 08:17:11;;;;;;;0.80;0.33;;;;;;;6.36;64.22;98616.72;5014412;28;20215;-85
2024/02/23 08:19:38;;;;;;;3.07;0.40;;;;;;;6.36;64.61;98616.72;5006374;28;20206;-83
2024/02/23 08:22:05;;;;;;;2.87;0.63;;;;;;;6.42;64.14;98618.91;5010348;28;20291;-84
2024/02/23 08:24:31;;;;;;;1.10;0.50;;;;;;;6.47;63.92;98628.13;5006374;28;20211;-83
2024/02/23 08:26:58;;;;;;;2.03;0.50;;;;;;;6.55;63.28;98627.53;5013812;28;20227;-83
2024/02/23 08:29:24;;;;;;;3.23;0.40;;;;;;;6.55;64.39;98622.25;5013696;28;20213;-84
2024/02/23 08:31:51;;;;;;;3.23;0.50;;;;;;;6.60;62.58;98630.69;5001403;28;20582;-84
2024/02/23 08:34:19;;;;;;;1.50;0.47;;;;;;;6.68;60.77;98638.84;5002334;28;20222;-83
2024/02/23 08:36:45;;;;;;;1.30;0.47;;;;;;;6.64;61.14;98626.81;5004493;28;20219;-84
2024/02/23 08:39:12;;;;;;;1.40;0.30;;;;;;;6.67;62.20;98626.56;5008435;28;20207;-84
2024/02/23 08:41:39;;;;;;;1.03;0.30;;;;;;;6.73;61.71;98620.78;5008907;28;20213;-84
2024/02/23 08:44:06;;;;;;;2.20;0.40;;;;;;;6.81;62.07;98610.44;5010158;28;20220;-84
2024/02/23 08:46:32;;;;;;;2.10;0.70;;;;;;;6.93;61.36;98614.75;5011431;28;20690;-84
2024/02/23 08:48:59;;;;;;;1.90;0.50;;;;;;;7.02;60.33;98594.63;5017809;28;20202;-83
2024/02/23 08:51:27;;;;;;;1.13;0.40;;;;;;;7.09;59.06;98603.75;5008660;28;20215;-83
2024/02/23 08:53:54;;;;;;;1.43;0.40;;;;;;;7.15;59.88;98608.56;5010330;28;20203;-83
2024/02/23 08:56:20;;;;;;;1.97;0.50;;;;;;;7.29;59.83;98610.06;5005214;28;20313;-84
2024/02/23 08:58:47;;;;;;;2.13;0.50;;;;;;;7.44;58.44;98606.16;5006121;28;20214;-83
2024/02/23 09:01:14;;;;;;;1.80;0.30;;;;;;;7.54;58.59;98614.16;5011543;28;20214;-84
2024/02/23 09:03:40;;;;;;;4.93;0.93;;;;;;;7.68;57.65;98623.63;5015799;28;20221;-83
2024/02/23 09:06:06;;;;;;;1.27;0.50;;;;;;;7.72;57.49;98617.09;5009506;28;20595;-85
2024/02/23 09:08:34;;;;;;;0.37;0.20;;;;;;;7.83;57.67;98631.13;5014109;28;20207;-84
2024/02/23 09:11:00;;;;;;;2.30;0.37;;;;;;;7.87;57.66;98635.22;5013395;28;20213;-84
2024/02/23 09:13:29;;;;;;;1.50;0.37;;;;;;;7.96;58.11;98644.19;5015596;28;20263;-84
2024/02/23 09:15:56;;;;;;;1.77;0.40;;;;;;;8.01;56.94;98639.34;5011233;28;20229;-83
2024/02/23 09:18:22;;;;;;;2.67;0.70;;;;;;;8.01;56.58;98649.94;5012060;28;20749;-84
2024/02/23 09:20:49;;;;;;;0.80;0.30;;;;;;;7.98;57.50;98658.16;5010083;28;20225;-84
2024/02/23 09:23:16;;;;;;;3.27;0.50;;;;;;;7.96;57.13;98657.44;5011236;28;20680;-84
2024/02/23 09:25:44;;;;;;;1.20;0.30;;;;;;;7.93;57.66;98652.38;5007543;28;20222;-85
2024/02/23 09:28:11;;;;;;;1.03;0.40;;;;;;;7.86;58.54;98664.50;5011413;28;20225;-84
2024/02/23 09:30:37;;;;;;;1.30;0.20;;;;;;;7.84;57.81;98647.88;5004584;28;20209;-85
2024/02/23 09:33:04;;;;;;;2.10;0.43;;;;;;;7.86;57.70;98662.69;5007473;28;20295;-85
2024/02/23 09:35:31;;;;;;;0.73;0.30;;;;;;;7.95;57.60;98658.41;5010485;28;20222;-83
2024/02/23 09:37:57;;;;;;;0.30;0.20;;;;;;;8.02;57.62;98662.22;5011763;28;20592;-83
2024/02/23 09:40:24;;;;;;;1.47;0.60;;;;;;;8.11;58.33;98668.53;5010523;28;20209;-83
2024/02/23 09:42:56;;;;;;;4.57;0.53;;;;;;;8.19;57.66;98679.34;5012847;28;20230;-83
2024/02/23 09:45:24;;;;;;;0.50;0.30;;;;;;;8.30;57.78;98677.47;5010750;28;20290;-84
2024/02/23 09:47:51;;;;;;;1.90;0.40;;;;;;;8.50;58.56;98670.50;5010504;28;20249;-84
2024/02/23 09:50:21;;;;;;;2.87;0.53;;;;;;;8.70;56.92;98669.59;5010669;28;20219;-84
2024/02/23 09:52:50;;;;;;;3.00;0.83;;;;;;;8.80;56.40;98674.94;5007765;28;20294;-84
2024/02/23 09:55:17;;;;;;;1.07;0.40;;;;;;;8.93;55.16;98672.06;5011305;28;20253;-84
2024/02/23 09:57:44;;;;;;;2.17;0.40;;;;;;;8.98;55.19;98675.97;5008105;28;20219;-84
2024/02/23 10:00:13;;;;;;;0.70;0.50;;;;;;;9.07;54.85;98669.03;5009183;28;20207;-84
2024/02/23 10:02:40;;;;;;;1.70;0.40;;;;;;;9.11;54.42;98662.47;5008851;28;20221;-84
2024/02/23 10:05:08;;;;;;;1.80;0.30;;;;;;;9.16;55.01;98662.03;5010708;28;20210;-86
2024/02/23 10:07:35;;;;;;;2.17;0.33;;;;;;;9.24;55.12;98671.03;5011689;28;20238;-84
2024/02/23 10:10:02;;;;;;;3.30;0.53;;;;;;;9.30;54.01;98664.34;5010282;28;20302;-84
2024/02/23 10:12:28;;;;;;;0.40;0.40;;;;;;;9.34;53.94;98660.41;5010616;28;20630;-83
2024/02/23 10:14:55;;;;;;;1.67;0.30;;;;;;;9.35;54.32;98667.41;5010764;28;20907;-84
2024/02/23 10:17:23;;;;;;;2.57;0.50;;;;;;;9.36;53.75;98675.22;5010729;28;20218;-87
2024/02/23 10:19:49;;;;;;;2.20;0.40;;;;;;;9.38;53.78;98678.59;5009882;28;20756;-84
2024/02/23 10:22:16;;;;;;;2.20;1.30;;;;;;;9.33;53.42;98680.81;5015003;28;20221;-85
2024/02/23 10:24:43;;;;;;;14.63;7.50;;;;;;;9.29;53.11;98690.06;5009087;28;20227;-84
2024/02/23 10:27:09;;;;;;;0.87;0.40;;;;;;;9.31;52.54;98687.28;5016789;28;20683;-85
2024/02/23 10:29:36;;;;;;;1.00;0.40;;;;;;;9.29;52.72;98681.25;5007640;28;20261;-83
2024/02/23 10:32:04;;;;;;;0.47;0.20;;;;;;;9.26;52.11;98702.78;5010219;28;20207;-83
2024/02/23 10:34:32;;;;;;;2.27;0.50;;;;;;;9.22;53.02;98696.03;5006522;28;20222;-85
2024/02/23 10:36:59;;;;;;;0.87;0.40;;;;;;;9.18;52.86;98695.47;5014328;28;20226;-83
2024/02/23 10:39:29;;;;;;;1.40;0.20;;;;;;;9.16;52.00;98697.41;5010809;28;20203;-84
2024/02/23 10:41:58;;;;;;;0.20;0.20;;;;;;;9.14;53.14;98702.00;5017375;28;20213;-84
2024/02/23 10:44:25;;;;;;;0.40;0.30;;;;;;;9.09;53.13;98692.78;5014299;28;20231;-83
2024/02/23 10:46:54;;;;;;;2.70;0.70;;;;;;;9.07;52.89;98698.25;5009773;28;20877;-84
2024/02/23 10:49:26;;;;;;;1.10;0.37;;;;;;;9.07;52.43;98690.28;5009020;28;20209;-84
2024/02/23 10:51:54;;;;;;;1.40;0.40;;;;;;;9.05;52.56;98686.91;5013951;28;20207;-83
2024/02/23 10:54:22;;;;;;;0.70;0.37;;;;;;;9.13;52.97;98683.59;5011095;28;20203;-84
2024/02/23 10:56:50;;;;;;;1.60;0.40;;;;;;;9.09;52.15;98690.97;5013707;28;20227;-83
2024/02/23 10:59:18;;;;;;;3.07;0.50;;;;;;;9.14;52.85;98699.38;5012200;28;20211;-83
2024/02/23 11:01:46;;;;;;;1.40;0.80;;;;;;;9.19;53.86;98717.56;5005761;28;20258;-84
2024/02/23 11:04:12;;;;;;;2.40;0.50;;;;;;;9.22;52.23;98698.69;5007673;28;20203;-83
2024/02/23 11:06:39;;;;;;;3.77;0.60;;;;;;;9.22;52.43;98694.22;5022307;28;20235;-84
2024/02/23 11:09:08;;;;;;;1.17;0.43;;;;;;;9.25;52.40;98712.56;5008909;28;20203;-83
2024/02/23 11:11:35;;;;;;;1.43;0.27;;;;;;;9.29;51.45;98697.19;5006832;28;20211;-84
2024/02/23 11:14:04;;;;;;;1.33;0.40;;;;;;;9.33;52.19;98701.22;5006627;28;20234;-83
2024/02/23 11:16:33;;;;;;;1.60;0.40;;;;;;;9.38;51.01;98688.38;5014116;28;20234;-84
2024/02/23 11:19:05;;;;;;;0.67;0.20;;;;;;;9.42;50.28;98684.47;5018040;28;20289;-85
2024/02/23 11:21:36;;;;;;;1.37;0.33;;;;;;;9.36;50.81;98683.19;5013844;28;20265;-84
2024/02/23 11:24:04;;;;;;;0.70;0.33;;;;;;;9.40;51.58;98683.78;5013614;28;20257;-84
2024/02/23 11:26:33;;;;;;;2.40;0.30;;;;;;;9.47;51.08;98671.63;5013481;28;20235;-84
2024/02/23 11:29:00;;;;;;;1.43;0.40;;;;;;;9.57;50.87;98661.00;5007724;28;20569;-84
2024/02/23 11:31:31;;;;;;;2.57;0.50;;;;;;;9.62;50.98;98669.41;5008847;28;20214;-83
2024/02/23 11:33:57;;;;;;;0.93;0.40;;;;;;;9.66;51.69;98681.44;5010927;28;20206;-84
2024/02/23 11:36:24;;;;;;;1.03;0.23;;;;;;;9.74;50.29;98676.25;5016632;28;20629;-84
2024/02/23 11:38:54;;;;;;;0.87;0.30;;;;;;;9.79;50.77;98665.19;5013664;28;20215;-84
2024/02/23 11:41:22;;;;;;;2.27;0.70;;;;;;;9.74;49.92;98677.09;5015969;28;20207;-84